AAL366 KORD-KGRR
Flight info
| Callsign | AAL366 |
|---|---|
| Flight time | N/A |
| Altitude | 23000 |
| Route | EBAKE WISMO BRONZ |
| Aircraft | B738/M-SDE2E3FGHIRWXY/LB1 |
Departure
| Time | 2026-04-30 15:03 |
|---|---|
| Airport | Chicago O'Hare International Airport (KORD) |
Arrival
| Time | N/A |
|---|---|
| Airport | Gerald R. Ford International Airport (KGRR) |
| Time | Latitude | Longitude | Altitude | Speed | Heading |
|---|---|---|---|---|---|
| 2026-04-30 14:43 | 41.97729 | -87.89665 | 666 ft | 0 kts | 180° |
| 2026-04-30 14:53 | 41.97730 | -87.89665 | 668 ft | 2 kts | 180° |
| 2026-04-30 14:54 | 41.97777 | -87.89670 | 666 ft | 4 kts | 137° |
| 2026-04-30 14:54 | 41.97786 | -87.89714 | 668 ft | 1 kts | 90° |
| 2026-04-30 14:56 | 41.97786 | -87.89710 | 668 ft | 2 kts | 89° |
| 2026-04-30 14:56 | 41.97786 | -87.89608 | 668 ft | 9 kts | 91° |
| 2026-04-30 14:57 | 41.97771 | -87.89515 | 668 ft | 11 kts | 107° |
| 2026-04-30 14:57 | 41.97645 | -87.89432 | 668 ft | 12 kts | 180° |
| 2026-04-30 14:58 | 41.97460 | -87.89431 | 668 ft | 15 kts | 180° |
| 2026-04-30 14:58 | 41.97349 | -87.89430 | 668 ft | 16 kts | 180° |
| 2026-04-30 14:58 | 41.97194 | -87.89322 | 668 ft | 15 kts | 90° |
| 2026-04-30 14:59 | 41.97195 | -87.88989 | 668 ft | 20 kts | 90° |
| 2026-04-30 15:00 | 41.97196 | -87.88397 | 668 ft | 21 kts | 89° |
| 2026-04-30 15:00 | 41.97166 | -87.88042 | 668 ft | 19 kts | 157° |
| 2026-04-30 15:01 | 41.97018 | -87.88035 | 670 ft | 9 kts | 180° |
| 2026-04-30 15:01 | 41.96978 | -87.88036 | 671 ft | 8 kts | 180° |
| 2026-04-30 15:01 | 41.96907 | -87.88078 | 669 ft | 15 kts | 223° |
| 2026-04-30 15:02 | 41.96600 | -87.88442 | 668 ft | 101 kts | 221° |
| 2026-04-30 15:02 | 41.95881 | -87.89291 | 674 ft | 171 kts | 221° |
| 2026-04-30 15:03 | 41.93090 | -87.92484 | 3453 ft | 189 kts | 205° |
| 2026-04-30 15:03 | 41.90215 | -87.91650 | 4109 ft | 249 kts | 137° |
| 2026-04-30 15:04 | 41.89118 | -87.87091 | 5314 ft | 276 kts | 76° |
| 2026-04-30 15:04 | 41.91940 | -87.80369 | 8060 ft | 284 kts | 50° |
| 2026-04-30 15:05 | 41.95345 | -87.73547 | 10528 ft | 309 kts | 49° |
| 2026-04-30 15:06 | 41.97941 | -87.68323 | 11056 ft | 359 kts | 50° |
| 2026-04-30 15:06 | 42.00745 | -87.62576 | 12525 ft | 373 kts | 51° |
| 2026-04-30 15:07 | 42.03602 | -87.56684 | 14168 ft | 380 kts | 51° |
| 2026-04-30 15:07 | 42.06533 | -87.50646 | 15514 ft | 391 kts | 51° |
| 2026-04-30 15:08 | 42.09550 | -87.44425 | 16844 ft | 401 kts | 51° |
| 2026-04-30 15:08 | 42.14191 | -87.34830 | 18737 ft | 417 kts | 52° |
| 2026-04-30 15:09 | 42.17386 | -87.28207 | 19895 ft | 425 kts | 51° |
| 2026-04-30 15:09 | 42.20639 | -87.21447 | 20994 ft | 434 kts | 51° |
| 2026-04-30 15:10 | 42.23967 | -87.14519 | 22037 ft | 443 kts | 51° |
| 2026-04-30 15:11 | 42.28403 | -86.98493 | 23139 ft | 488 kts | 84° |
| 2026-04-30 15:11 | 42.28717 | -86.89271 | 23130 ft | 495 kts | 85° |
| 2026-04-30 15:12 | 42.29162 | -86.75429 | 23120 ft | 489 kts | 85° |
| 2026-04-30 15:13 | 42.29516 | -86.66259 | 23126 ft | 489 kts | 84° |
| 2026-04-30 15:14 | 42.30229 | -86.47858 | 23115 ft | 492 kts | 85° |
| 2026-04-30 15:14 | 42.30682 | -86.35563 | 23110 ft | 492 kts | 85° |
| 2026-04-30 15:16 | 42.31491 | -86.12669 | 22266 ft | 476 kts | 85° |
| 2026-04-30 15:17 | 42.32277 | -85.95271 | 19792 ft | 449 kts | 77° |
| 2026-04-30 15:18 | 42.39072 | -85.78189 | 15580 ft | 387 kts | 49° |
| 2026-04-30 15:19 | 42.43686 | -85.69352 | 13866 ft | 381 kts | 49° |